• Join FlightAware (Why Join?)
  • Login
  • US Flag 
12:47PM EDT


 

Airport Tracker/Info


-or-


 

Live Flight TrackerFlight Track Log ✈ BOE787 ✈ 28-Jun-2012 ✈ KPHL - KPDX

Flight Track Log - Related Links

Times and Time Zones

All times are in EDT time to prevent confusion due to time zone crossing. See the BOE787 flight status page for this flight to view local times or setup timezone preferences in your user account.

Time Position Orientation Groundspeed Altitude Reporting Facility
EDT Latitude Longitude Course Direction KTS MPH feet Rate Location/Type
09:10AM 39.8667 -75.2667 246° West 133 153 1,200  Level Philadelphia TRACON
09:11AM 39.8542 -75.3031 252° West 158 182 2,400 1,560 Climbing FAA TRACON SMA TRACON (SMA)
09:11AM 39.8425 -75.3492 252° West 215 247 3,500 2,400 Climbing FAA TRACON SMA TRACON (SMA)
09:12AM 39.8278 -75.4086 279° West 256 295 5,600 3,360 Climbing FAA TRACON SMA TRACON (SMA)
09:13AM 39.8347 -75.4633 341° North 254 292 8,000 3,600 Climbing FAA TRACON SMA TRACON (SMA)
09:13AM 39.8822 -75.4847 351° North 288 331 10,400 2,820 Climbing FAA TRACON SMA TRACON (SMA)
09:14AM 39.9308 -75.4953 350° North 285 328 11,800 1,260 Climbing FAA TRACON SMA TRACON (SMA)
09:15AM 39.9942 -75.5106 351° North 350 403 12,100 900 Climbing FAA TRACON SMA TRACON (SMA)
09:15AM 40.0633 -75.5253 350° North 361 415 13,000 660 Climbing FAA TRACON SMA TRACON (SMA)
09:16AM 40.1242 -75.5389 350° North 360 414 13,000 360 Level FAA TRACON SMA TRACON (SMA)
09:17AM 40.1928 -75.5544 327° Northwest 360 414 13,500 1,920 Climbing FAA TRACON SMA TRACON (SMA)
09:17AM 40.2494 -75.6019 311° West 356 410 15,700 2,940 Climbing FAA TRACON SMA TRACON (SMA)
09:18AM 40.2906 -75.6636 310° West 366 421 17,400 1,920 Climbing FAA TRACON SMA TRACON (SMA)
09:19AM 40.3111 -75.6958 310° West 371 427 18,200 2,340 Climbing FAA TRACON SMA TRACON (SMA)
09:20AM 40.4106 -75.8519 292° West 391 450 21,700 2,280 Climbing New York Center
09:21AM 40.4544 -75.9917 282° West 402 463 23,200 1,140 Climbing New York Center
09:22AM 40.4806 -76.1517 280° West 426 490 24,000 1,800 Climbing New York Center
09:23AM 40.5025 -76.3119 283° West 441 507 26,800 2,220 Climbing New York Center
09:24AM 40.5300 -76.4753 284° West 446 513 28,500 1,560 Climbing New York Center
09:25AM 40.5597 -76.6361 289° West 452 520 30,000 1,560 Climbing New York Center
09:26AM 40.6053 -76.8069 289° West 457 526 31,600 1,800 Climbing New York Center
09:27AM 40.6472 -76.9636 292° West 462 532 33,600 1,800 Climbing New York Center
09:28AM 40.6933 -77.1158 294° West 452 520 35,300 1,500 Climbing New York Center
09:29AM 40.7436 -77.2628 295° West 442 509 36,700 1,260 Climbing New York Center
09:30AM 40.7889 -77.3906 294° West 437 503 37,800 960 Climbing New York Center
09:31AM 40.8369 -77.5325 293° West 432 497 38,700 720 Climbing New York Center
09:32AM 40.9144 -77.7722 294° West 435 501 39,800 480 Climbing Cleveland Center
09:33AM 40.9639 -77.9214 293° West 440 506 40,000 60 Climbing Cleveland Center
09:34AM 41.0131 -78.0733 294° West 440 506 40,000  Level Cleveland Center
09:35AM 41.0622 -78.2231 293° West 445 512 40,000  Level Cleveland Center
09:36AM 41.1133 -78.3811 293° West 454 522 40,000  Level Cleveland Center
09:37AM 41.1619 -78.5339 293° West 454 522 40,000  Level Cleveland Center
09:38AM 41.2106 -78.6869 293° West 449 517 40,000  Level Cleveland Center
09:39AM 41.2589 -78.8375 291° West 449 517 40,000  Level Cleveland Center
09:40AM 41.3092 -79.0103 293° West 449 517 40,000  Level Cleveland Center
09:41AM 41.3572 -79.1639 292° West 449 517 40,000  Level Cleveland Center
09:42AM 41.4047 -79.3208 292° West 449 517 40,000  Level Cleveland Center
09:43AM 41.4503 -79.4750 292° West 449 517 40,000  Level Cleveland Center
09:44AM 41.4975 -79.6294 293° West 449 517 40,000  Level Cleveland Center
09:45AM 41.5422 -79.7731 292° West 454 522 40,000  Level Cleveland Center
09:46AM 41.5892 -79.9308 293° West 454 522 40,000  Level Cleveland Center
09:47AM 41.6378 -80.0858 290° West 454 522 40,000  Level Cleveland Center
09:48AM 41.6800 -80.2383 291° West 447 514 40,000  Level Cleveland Center
09:49AM 41.7264 -80.3967 292° West 454 522 40,000  Level Cleveland Center
09:50AM 41.7725 -80.5497 291° West 449 517 40,000  Level Cleveland Center
09:51AM 41.8181 -80.7114 291° West 449 517 40,000  Level Cleveland Center
09:52AM 41.8636 -80.8703 292° West 449 517 40,000  Level Cleveland Center
09:53AM 41.9111 -81.0297 291° West 455 524 40,000  Level Cleveland Center
09:54AM 41.9564 -81.1892 290° West 461 531 40,000  Level Cleveland Center
09:55AM 41.9992 -81.3458 291° West 461 531 40,000  Level Cleveland Center
09:56AM 42.0458 -81.5058 290° West 461 531 40,000  Level Cleveland Center
09:57AM 42.0944 -81.6828 291° West 461 531 40,000  Level Cleveland Center
09:58AM 42.1386 -81.8406 291° West 456 525 40,000  Level Cleveland Center
09:59AM 42.1847 -82.0011 289° West 456 525 40,000  Level Cleveland Center
10:00AM 42.2164 -82.1281 290° West 451 519 40,000  Level Cleveland Center
10:01AM 42.2639 -82.3003 290° West 445 512 40,000 -60 Level Cleveland Center
10:02AM 42.3072 -82.4642 290° West 450 518 39,900  Descending Cleveland Center
10:03AM 42.3503 -82.6256 291° West 450 518 40,000  Climbing Cleveland Center
10:04AM 42.3953 -82.7847 289° West 450 518 39,900  Descending Cleveland Center
10:05AM 42.4358 -82.9464 290° West 450 518 40,000  Climbing Cleveland Center
10:06AM 42.4803 -83.1114 290° West 456 525 39,900  Descending Cleveland Center
10:07AM 42.5247 -83.2739 290° West 456 525 40,000  Climbing Cleveland Center
10:08AM 42.5686 -83.4392 289° West 461 531 40,000 -60 Level Cleveland Center
10:10AM 42.6497 -83.7675 289° West 466 536 39,900  Descending Cleveland Center
10:11AM 42.6944 -83.9478 289° West 466 536 40,000  Climbing Cleveland Center
10:12AM 42.7375 -84.1142 288° West 466 536 39,900  Descending Cleveland Center
10:13AM 42.7781 -84.2806 290° West 466 536 40,000  Climbing Cleveland Center
10:15AM 42.8536 -84.5683 289° West 476 548 40,000  Level Chicago Center
10:16AM 42.8911 -84.7214 288° West 476 548 40,000  Level Chicago Center
10:17AM 42.9336 -84.9000 289° West 471 542 40,000  Level Chicago Center
10:18AM 42.9803 -85.0869 288° West 471 542 40,000  Level Chicago Center
10:19AM 43.0197 -85.2517 289° West 471 542 40,000  Level Chicago Center
10:20AM 43.0608 -85.4197 288° West 471 542 40,000  Level Chicago Center
10:21AM 43.0997 -85.5850 289° West 471 542 40,000  Level Chicago Center
10:22AM 43.1428 -85.7531 288° West 471 542 40,000  Level Chicago Center
10:23AM 43.1833 -85.9244 288° West 471 542 40,000  Level Chicago Center
10:24AM 43.2258 -86.1017 286° West 478 550 40,000  Level Chicago Center
10:25AM 43.2597 -86.2681 287° West 472 543 40,000  Level Chicago Center
10:26AM 43.2975 -86.4375 287° West 466 536 40,000  Level Chicago Center
10:27AM 43.3347 -86.6042 287° West 466 536 40,000  Level Chicago Center
10:28AM 43.3719 -86.7708 287° West 466 536 40,000  Level Chicago Center
10:29AM 43.4111 -86.9436 287° West 466 536 40,000  Level Chicago Center
10:30AM 43.4481 -87.1139 288° West 471 542 40,000  Level Chicago Center
10:31AM 43.4864 -87.2811 286° West 471 542 40,000  Level Chicago Center
10:32AM 43.5161 -87.4261 287° West 458 527 40,000  Level Chicago Center
10:33AM 43.5542 -87.5997 286° West 453 521 40,000  Level Chicago Center
10:34AM 43.5900 -87.7678 287° West 458 527 40,000  Level Chicago Center
10:35AM 43.6275 -87.9361 286° West 458 527 40,000  Level Chicago Center
10:36AM 43.6672 -88.1275 287° West 463 533 40,000  Level Chicago Center
10:37AM 43.7044 -88.2961 287° West 463 533 40,000  Level Chicago Center
10:38AM 43.7411 -88.4678 286° West 468 539 40,000  Level Chicago Center
10:39AM 43.7758 -88.6397 286° West 468 539 40,000  Level Chicago Center
10:40AM 43.8100 -88.8092 285° West 468 539 40,000  Level Chicago Center
10:41AM 43.8419 -88.9786 285° West 462 532 40,000  Level Chicago Center
10:42AM 43.8756 -89.1483 285° West 456 525 40,000  Level Chicago Center
10:43AM 43.9092 -89.3211 285° West 456 525 40,000  Level Chicago Center
10:44AM 43.9406 -89.4867 285° West 459 528 40,000  Level Minneapolis Center
10:45AM 43.9731 -89.6567 285° West 458 527 40,000  Level Minneapolis Center
10:46AM 44.0061 -89.8275 285° West 458 527 40,000  Level Minneapolis Center
10:47AM 44.0450 -90.0283 285° West 460 529 40,000  Level Minneapolis Center
10:48AM 44.0772 -90.1983 285° West 457 526 40,000  Level Minneapolis Center
10:49AM 44.1111 -90.3706 284° West 460 529 40,000  Level Minneapolis Center
10:50AM 44.1428 -90.5425 285° West 460 529 40,000  Level Minneapolis Center
10:51AM 44.1800 -90.7419 284° West 458 527 40,000  Level Minneapolis Center
10:52AM 44.2117 -90.9144 284° West 460 529 40,000  Level Minneapolis Center
10:54AM 44.2403 -91.0742 284° West 458 527 40,000  Level Minneapolis Center
10:55AM 44.2708 -91.2433 284° West 457 526 40,000  Level Minneapolis Center
10:56AM 44.3067 -91.4458 284° West 454 522 40,000  Level Minneapolis Center
10:57AM 44.3353 -91.6042 283° West 457 526 40,000  Level Minneapolis Center
10:58AM 44.3694 -91.8125 284° West 460 529 40,000  Level Minneapolis Center
10:59AM 44.3997 -91.9844 284° West 458 527 40,000  Level Minneapolis Center
11:00AM 44.4292 -92.1561 283° West 457 526 40,000  Level Minneapolis Center
11:01AM 44.4631 -92.3600 283° West 452 520 40,000  Level Minneapolis Center
11:02AM 44.4917 -92.5292 283° West 448 516 40,000  Level Minneapolis Center
11:03AM 44.5189 -92.6975 283° West 447 514 40,000  Level Minneapolis Center
11:04AM 44.5461 -92.8650 283° West 443 510 40,000  Level Minneapolis Center
11:05AM 44.5733 -93.0353 282° West 444 511 40,000  Level Minneapolis Center
11:06AM 44.6058 -93.2428 283° West 447 514 40,000  Level Minneapolis Center
11:07AM 44.6344 -93.4161 283° West 448 516 40,000  Level Minneapolis Center
11:08AM 44.6614 -93.5872 283° West 446 513 40,000  Level Minneapolis Center
11:09AM 44.6883 -93.7547 282° West 442 509 40,000  Level Minneapolis Center
11:10AM 44.7142 -93.9219 282° West 440 506 40,000  Level Minneapolis Center
11:11AM 44.7400 -94.0883 282° West 438 504 40,000  Level Minneapolis Center
11:12AM 44.7697 -94.2875 282° West 436 502 40,000  Level Minneapolis Center
11:13AM 44.7947 -94.4536 282° West 436 502 40,000  Level Minneapolis Center
11:14AM 44.8197 -94.6189 281° West 434 499 40,000  Level Minneapolis Center
11:15AM 44.8425 -94.7783 281° West 433 498 40,000  Level Minneapolis Center
11:16AM 44.8700 -94.9764 281° West 431 496 40,000  Level Minneapolis Center
11:18AM 44.8933 -95.1403 281° West 430 495 40,000  Level Minneapolis Center
11:19AM 44.9164 -95.3036 281° West 428 493 40,000  Level Minneapolis Center
11:20AM 44.9383 -95.4672 281° West 428 493 40,000  Level Minneapolis Center
11:21AM 44.9600 -95.6308 281° West 428 493 40,000  Level Minneapolis Center
11:22AM 44.9878 -95.8272 281° West 428 493 40,000  Level Minneapolis Center
11:23AM 45.0094 -95.9906 281° West 427 491 40,000  Level Minneapolis Center
11:24AM 45.0311 -96.1550 281° West 428 493 40,000  Level Minneapolis Center
11:25AM 45.0528 -96.3181 280° West 426 490 40,000  Level Minneapolis Center
11:26AM 45.0778 -96.5142 280° West 425 489 40,000  Level Minneapolis Center
11:27AM 45.0989 -96.6786 280° West 427 491 40,000  Level Minneapolis Center
11:28AM 45.1192 -96.8425 281° West 426 490 40,000  Level Minneapolis Center
11:29AM 45.1411 -97.0067 280° West 426 490 40,000  Level Minneapolis Center
11:30AM 45.1619 -97.1700 279° West 425 489 40,000  Level Minneapolis Center
11:31AM 45.1839 -97.3669 279° West 424 488 40,000  Level Minneapolis Center
11:32AM 45.2028 -97.5297 280° West 423 487 40,000  Level Minneapolis Center
11:33AM 45.2219 -97.6903 280° West 419 482 40,000  Level Minneapolis Center
11:34AM 45.2419 -97.8522 279° West 418 481 40,000  Level Minneapolis Center
11:35AM 45.2606 -98.0139 279° West 418 481 40,000  Level Minneapolis Center
11:36AM 45.2828 -98.2122 279° West 419 482 40,000  Level Minneapolis Center
11:37AM 45.3000 -98.3744 280° West 418 481 40,000  Level Minneapolis Center
11:38AM 45.3192 -98.5369 279° West 418 481 40,000  Level Minneapolis Center
11:39AM 45.3364 -98.7003 279° West 419 482 40,000  Level Minneapolis Center
11:40AM 45.3536 -98.8619 279° West 417 480 40,000  Level Minneapolis Center
11:41AM 45.3708 -99.0228 279° West 415 478 40,000  Level Minneapolis Center
11:42AM 45.3914 -99.2169 278° West 416 479 40,000  Level Minneapolis Center
11:44AM 45.4078 -99.3783 278° West 415 478 40,000  Level Minneapolis Center
11:45AM 45.4236 -99.5408 278° West 416 479 40,000  Level Minneapolis Center
11:46AM 45.4400 -99.7014 278° West 415 478 40,000  Level Minneapolis Center
11:47AM 45.4597 -99.8953 278° West 416 479 40,000  Level Minneapolis Center
11:48AM 45.4750 -100.0583 278° West 417 480 40,000  Level Minneapolis Center
11:49AM 45.4903 -100.2208 278° West 418 481 40,000  Level Minneapolis Center
11:50AM 45.5053 -100.3836 277° West 418 481 40,000  Level Minneapolis Center
11:51AM 45.5200 -100.5475 278° West 419 482 40,000  Level Minneapolis Center
11:52AM 45.5381 -100.7417 277° West 415 478 40,000  Level Minneapolis Center
11:53AM 45.5522 -100.9036 277° West 413 475 40,000  Level Minneapolis Center
11:54AM 45.5658 -101.0658 278° West 414 476 40,000  Level Minneapolis Center
11:55AM 45.5808 -101.2289 277° West 415 478 40,000  Level Minneapolis Center
11:56AM 45.5947 -101.3908 277° West 413 475 40,000  Level Minneapolis Center
11:57AM 45.6108 -101.5850 277° West 412 474 40,000  Level Minneapolis Center
11:58AM 45.6247 -101.7461 276° West 411 473 40,000  Level Minneapolis Center
11:59AM 45.6375 -101.9089 276° West 412 474 40,000  Level Minneapolis Center
12:00PM 45.6494 -102.0736 277° West 414 476 40,000  Level Minneapolis Center
12:01PM 45.6628 -102.2383 274° West 417 480 40,000  Level Minneapolis Center
12:02PM 45.6703 -102.3858 276° West 417 480 40,000 -60 Level Salt Lake Center
12:03PM 45.6831 -102.5506 276° West 418 481 39,900  Descending Salt Lake Center
12:04PM 45.6942 -102.7164 276° West 418 481 40,000  Climbing Salt Lake Center
12:05PM 45.7061 -102.8833 277° West 419 482 40,000  Level Salt Lake Center
12:06PM 45.7225 -103.0758 275° West 416 479 40,000  Level Salt Lake Center
12:07PM 45.7331 -103.2433 275° West 418 481 40,000 -60 Level Salt Lake Center
12:08PM 45.7436 -103.4100 275° West 420 483 39,900  Descending Salt Lake Center
12:09PM 45.7544 -103.5778 275° West 423 487 40,000  Climbing Salt Lake Center
12:10PM 45.7653 -103.7472 275° West 426 490 40,000  Level Salt Lake Center
12:11PM 45.7781 -103.9522 275° West 429 494 40,000 -60 Level Salt Lake Center
12:12PM 45.7883 -104.1236 275° West 431 496 39,900  Descending Salt Lake Center
12:13PM 45.7986 -104.2958 275° West 433 498 40,000  Climbing Salt Lake Center
12:14PM 45.8083 -104.4694 275° West 436 502 40,000  Level Salt Lake Center
12:15PM 45.8200 -104.6789 275° West 439 505 40,000  Level Salt Lake Center
12:17PM 45.8297 -104.8458 274° West 439 505 40,000  Level Salt Lake Center
12:18PM 45.8389 -105.0406 274° West 438 504 40,000  Level Salt Lake Center
12:19PM 45.8467 -105.2081 275° West 440 506 40,000  Level Salt Lake Center
12:20PM 45.8575 -105.4022 273° West 439 505 40,000  Level Salt Lake Center
12:21PM 45.8639 -105.5706 274° West 440 506 40,000  Level Salt Lake Center
12:22PM 45.8719 -105.7633 273° West 437 503 40,000  Level Salt Lake Center
12:23PM 45.8783 -105.9306 274° West 438 504 40,000  Level Salt Lake Center
12:24PM 45.8875 -106.1272 274° West 440 506 40,000  Level Salt Lake Center
12:25PM 45.8950 -106.2981 274° West 444 511 40,000  Level Salt Lake Center
12:26PM 45.9042 -106.4950 274° West 445 512 40,000  Level Salt Lake Center
12:27PM 45.9117 -106.6650 273° West 445 512 40,000  Level Salt Lake Center
12:28PM 45.9197 -106.8642 273° West 446 513 40,000  Level Salt Lake Center
12:29PM 45.9247 -107.0314 272° West 445 512 40,000  Level Salt Lake Center
12:30PM 45.9286 -107.2256 273° West 441 507 40,000  Level Salt Lake Center
12:31PM 45.9336 -107.3939 273° West 441 507 40,000  Level Salt Lake Center
12:32PM 45.9400 -107.5911 272° West 444 511 40,000  Level Salt Lake Center
12:33PM 45.9456 -107.7894 272° West 446 513 40,000  Level Salt Lake Center
12:34PM 45.9503 -107.9594 272° West 446 513 40,000  Level Salt Lake Center
12:35PM 45.9550 -108.1583 272° West 447 514 40,000  Level Salt Lake Center
12:36PM 45.9597 -108.3294 272° West 448 516 40,000  Level Salt Lake Center
12:37PM 45.9650 -108.5306 272° West 453 521 40,000  Level Salt Lake Center
12:38PM 45.9681 -108.7039 271° West 456 525 40,000  Level Salt Lake Center
12:39PM 45.9711 -108.9044 271° West 452 520 40,000  Level Salt Lake Center
12:41PM 45.9733 -109.0764 271° West 451 519 40,000  Level Salt Lake Center
12:42PM 45.9764 -109.2786 271° West 453 521 40,000  Level Salt Lake Center
12:43PM 45.9792 -109.4517 271° West 453 521 40,000  Level Salt Lake Center
12:44PM 45.9817 -109.6550 271° West 457 526 40,000  Level Salt Lake Center
12:45PM 45.9831 -109.8292 270° West 456 525 40,000  Level Salt Lake Center
12:46PM 45.9833 -110.0342 271° West 458 527 40,000  Level Salt Lake Center
12:47PM 45.9844 -110.2069 270° West 455 524 40,000  Level Salt Lake Center
12:48PM 45.9853 -110.4081 271° West 452 520 40,000  Level Salt Lake Center
12:49PM 45.9867 -110.6019 270° West 452 520 40,000  Level Salt Lake Center
12:50PM 45.9867 -110.7828 270° West 452 520 40,000  Level Salt Lake Center
12:51PM 45.9872 -110.9603 270° West 450 518 40,000  Level Salt Lake Center
12:52PM 45.9869 -111.1731 270° West 452 520 40,000  Level Salt Lake Center
12:53PM 45.9858 -111.3528 269° West 456 525 40,000  Level Salt Lake Center
12:54PM 45.9844 -111.5325 269° West 455 524 40,000  Level Salt Lake Center
12:55PM 45.9825 -111.7122 269° West 455 524 40,000  Level Salt Lake Center
12:56PM 45.9800 -111.9283 269° West 452 520 40,000  Level Salt Lake Center
12:57PM 45.9783 -112.1086 269° West 453 521 40,000  Level Salt Lake Center
12:58PM 45.9758 -112.2914 269° West 456 525 40,000  Level Salt Lake Center
12:59PM 45.9736 -112.4764 269° West 461 531 40,000  Level Salt Lake Center
01:00PM 45.9703 -112.6614 269° West 463 533 40,000  Level Salt Lake Center
01:01PM 45.9669 -112.8831 269° West 464 534 40,000  Level Salt Lake Center
01:02PM 45.9636 -113.0681 268° West 464 534 40,000  Level Salt Lake Center
01:03PM 45.9594 -113.2542 269° West 465 535 40,000  Level Salt Lake Center
01:05PM 45.9561 -113.4389 268° West 464 534 40,000  Level Salt Lake Center
01:06PM 45.9522 -113.6369 268° West 466 536 40,000  Level Salt Lake Center
01:07PM 45.9472 -113.8228 268° West 466 536 40,000 -60 Level Salt Lake Center
01:08PM 45.9419 -114.0083 268° West 467 537 39,900  Descending Salt Lake Center
01:09PM 45.9356 -114.2322 268° West 468 539 40,000  Climbing Salt Lake Center
01:10PM 45.9303 -114.4083 267° West 470 541 40,000  Level Salt Lake Center
01:10PM 45.9261 -114.5311 268° West 469 540 40,000  Level Seattle Center
01:11PM 45.9194 -114.7508 267° West 470 541 40,000 -60 Level Seattle Center
01:13PM 45.9128 -114.9378 267° West 469 540 39,900 -60 Descending Seattle Center
01:14PM 45.9061 -115.1258 267° West 472 543 39,900  Level Seattle Center
01:15PM 45.8986 -115.3150 267° West 474 545 39,900  Level Seattle Center
01:16PM 45.8914 -115.5053 266° West 476 548 39,900  Level Seattle Center
01:17PM 45.8828 -115.6964 267° West 479 551 39,900  Level Seattle Center
01:18PM 45.8744 -115.8894 266° West 482 555 39,900  Level Seattle Center
01:19PM 45.8658 -116.0828 266° West 484 557 40,000  Climbing Seattle Center
01:20PM 45.8567 -116.2750 266° West 484 557 40,000  Level Seattle Center
01:21PM 45.8472 -116.4681 266° West 485 558 40,000  Level Seattle Center
01:22PM 45.8361 -116.6978 266° West 483 556 40,000  Level Seattle Center
01:23PM 45.8256 -116.8906 265° West 484 557 40,000  Level Seattle Center
01:24PM 45.8147 -117.0839 265° West 486 559 40,000 -60 Level Seattle Center
01:25PM 45.8036 -117.2772 266° West 486 559 39,900  Descending Seattle Center
01:26PM 45.7933 -117.4708 265° West 488 562 40,000  Climbing Seattle Center
01:27PM 45.7814 -117.6606 265° West 482 555 39,900  Descending Seattle Center
01:28PM 45.7697 -117.8514 265° West 482 555 40,000  Climbing Seattle Center
01:29PM 45.7583 -118.0414 265° West 480 552 39,900 -60 Descending Seattle Center
01:30PM 45.7461 -118.2317 264° West 480 552 39,900  Level Seattle Center
01:31PM 45.7331 -118.4186 265° West 477 549 40,000  Climbing Seattle Center
01:32PM 45.7206 -118.6056 264° West 474 545 40,000 -60 Level Seattle Center
01:33PM 45.7078 -118.7928 264° West 474 545 39,900  Descending Seattle Center
01:34PM 45.6906 -119.0178 261° West 476 548 40,000  Climbing Seattle Center
01:35PM 45.6694 -119.2047 260° West 476 548 40,000 -60 Level Seattle Center
01:36PM 45.6472 -119.3889 261° West 475 547 39,900  Descending Seattle Center
01:37PM 45.6261 -119.5753 261° West 475 547 40,000  Climbing Seattle Center
01:38PM 45.6056 -119.7608 260° West 474 545 40,000  Level Seattle Center
01:39PM 45.5839 -119.9444 261° West 472 543 40,000 -780 Level Seattle Center
01:40PM 45.5639 -120.1261 261° West 467 537 38,500 -2,100 Descending Seattle Center
01:41PM 45.5433 -120.3019 261° West 457 526 35,800 -3,420 Descending Seattle Center
01:42PM 45.5208 -120.4972 270° West 454 522 31,600 -3,720 Descending Seattle Center
01:43PM 45.5217 -120.6867 270° West 473 544 28,300 -2,820 Descending Seattle Center
01:44PM 45.5219 -120.8719 270° West 469 540 25,900 -2,280 Descending Seattle Center
01:45PM 45.5214 -121.0533 269° West 464 534 23,700 -2,220 Descending Seattle Center
01:46PM 45.5200 -121.2306 269° West 455 524 21,500 -2,220 Descending Seattle Center
01:47PM 45.5186 -121.4014 269° West 441 507 19,200 -2,400 Descending Seattle Center
01:48PM 45.5164 -121.5200 271° West 432 497 17,600 -2,400 Descending Seattle Center
01:48PM 45.5172 -121.6200 269° West 423 487 16,300 -2,220 Descending Seattle Center
01:49PM 45.5161 -121.7561 269° West 412 474 14,500 -1,260 Descending Seattle Center
01:50PM 45.5139 -121.8817 278° West 393 452 14,000 -1,080 Descending Seattle Center
01:51PM 45.5283 -122.0358 281° West 339 390 12,400 -1,500 Descending Seattle Center
01:52PM 45.5436 -122.1508 291° West 303 349 11,000 -1,260 Descending Seattle Center
01:53PM 45.5708 -122.2533 294° West 283 326 9,900 -600 Descending Seattle Center
01:54PM 45.6022 -122.3542 292° West 260 299 9,800 -720 Descending Seattle Center
01:55PM 45.6300 -122.4503 295° West 249 287 8,400 -1,620 Descending Seattle Center
01:56PM 45.6556 -122.5289 289° West 248 285 6,500 -1,800 Descending Seattle Center
01:57PM 45.6803 -122.6300 292° West 222 255 4,600 -1,380 Descending Seattle Center
01:58PM 45.6975 -122.6911 282° West 223 257 3,700 -840 Descending Seattle Center
01:59PM 45.7081 -122.7647 194° South 208 239 3,100 -660 Descending Seattle Center
02:00PM 45.6642 -122.7808 126° Southeast 182 209 2,400 -780 Descending Seattle Center
02:01PM 45.6369 -122.7272 122° Southeast 184 212 1,600 -840 Descending Seattle Center
02:02PM 45.6133 -122.6722 115° Southeast 144 166 700 -900 Descending Seattle Center
02:10PM 45.2457 -121.5691 115° Southeast  Level Estimated